Terminal Aerodrome Forecast
Issued by NWS

Home | Current Version | Previous Version | Text Only | Print | Product List | Glossary On
Versions: 1 2 3 4 5 6 7 8 9 10 11 12 13 14 15 16 17 18 19
000
FTUS45 KVEF 301100
TAFHND
TAF
KHND 301120Z 3012/3112 VRB06KT P6SM -SHRA FEW030 OVC050
      TEMPO 3016/3020 4SM -RA BR FEW020 BKN030
     FM302000 01006KT 5SM -RA BR FEW010 OVC030
      TEMPO 3020/3024 3SM RA BR SCT010 BKN020
     FM310300 VRB05KT P6SM VCSH FEW010 OVC030=

USA.gov is the U.S. government's official web portal to all federal, state and local government web resources and services.